Terminal Aerodrome Forecast
Issued by NWS

Home | Current Version | Previous Version | Text Only | Print | Product List | Glossary On
Versions: 1 2 3 4 5 6 7 8 9 10 11 12 13 14 15 16 17 18 19 20 21
678
FTUS42 KTAE 291737
TAFECP
TAF
KECP 291737Z 2918/3018 18004KT P6SM SCT040
     FM300000 20005KT P6SM SCT250
     FM300600 00000KT 3SM BR BKN004
     FM301400 16007KT P6SM SCT030=

USA.gov is the U.S. government's official web portal to all federal, state and local government web resources and services.